Time;durP1;ratioP1;P1;durP2;ratioP2;P2;SDS_P1;SDS_P2;PMS_P1;PMS_P2;Temp;Humidity;BMP_temperature;BMP_pressure;BME280_temperature;BME280_humidity;BME280_pressure;Samples;Min_cycle;Max_cycle;Signal;HPM_P1;HPM_P2
2023/06/20 00:00:14;;;;;;;1.50;1.50;;;22.90;74.70;;;;;;5005103;28;20088;-79
2023/06/20 00:02:40;;;;;;;1.40;1.40;;;22.90;74.70;;;;;;5003644;28;20515;-79
2023/06/20 00:05:06;;;;;;;1.50;1.50;;;22.90;74.70;;;;;;5002343;28;20492;-79
2023/06/20 00:07:32;;;;;;;1.55;1.55;;;22.90;74.60;;;;;;5003723;28;20053;-79
2023/06/20 00:09:58;;;;;;;1.42;1.42;;;22.90;74.80;;;;;;5001361;28;20046;-79
2023/06/20 00:12:23;;;;;;;1.55;1.55;;;22.90;74.70;;;;;;5018626;28;20054;-79
2023/06/20 00:14:49;;;;;;;1.35;1.35;;;22.80;74.80;;;;;;5007842;28;20404;-79
2023/06/20 00:17:14;;;;;;;1.85;1.75;;;22.90;74.80;;;;;;5005239;28;20041;-79
2023/06/20 00:19:40;;;;;;;1.73;1.63;;;22.90;74.90;;;;;;5006096;28;20125;-79
2023/06/20 00:22:06;;;;;;;2.08;1.98;;;22.90;74.90;;;;;;5006631;28;20088;-79
2023/06/20 00:24:32;;;;;;;2.10;2.00;;;22.90;74.90;;;;;;5007487;28;20047;-79
2023/06/20 00:27:01;;;;;;;1.40;1.40;;;22.90;75.00;;;;;;5008736;28;20462;-78
2023/06/20 00:29:27;;;;;;;1.58;1.58;;;22.80;74.90;;;;;;5005080;28;20042;-78
2023/06/20 00:31:52;;;;;;;2.10;2.00;;;22.80;74.90;;;;;;5006241;28;20050;-79
2023/06/20 00:34:18;;;;;;;1.60;1.55;;;22.80;75.10;;;;;;5006637;28;20504;-79
2023/06/20 00:36:43;;;;;;;1.63;1.63;;;22.80;75.00;;;;;;5009986;28;20038;-79
2023/06/20 00:39:10;;;;;;;1.80;1.70;;;22.80;75.10;;;;;;5010060;28;20038;-78
2023/06/20 00:41:36;;;;;;;1.52;1.52;;;22.80;75.10;;;;;;5005876;28;20042;-79
2023/06/20 00:44:03;;;;;;;1.60;1.60;;;22.80;75.30;;;;;;5008003;28;20045;-79
2023/06/20 00:46:29;;;;;;;1.42;1.42;;;22.80;75.30;;;;;;5006010;28;20050;-79
2023/06/20 00:48:56;;;;;;;1.40;1.40;;;22.80;75.20;;;;;;5005167;28;20057;-78
2023/06/20 00:51:22;;;;;;;1.52;1.52;;;22.80;75.30;;;;;;5007111;28;20030;-79
2023/06/20 00:53:48;;;;;;;1.35;1.35;;;22.80;75.30;;;;;;5022717;28;20050;-79
2023/06/20 00:56:13;;;;;;;1.45;1.45;;;22.80;75.30;;;;;;5006589;28;20034;-78
2023/06/20 00:58:39;;;;;;;1.38;1.38;;;22.80;75.30;;;;;;5007365;28;20096;-79
2023/06/20 01:01:05;;;;;;;1.58;1.58;;;22.80;75.30;;;;;;5007438;28;20677;-79
2023/06/20 01:03:36;;;;;;;1.55;1.55;;;22.80;75.40;;;;;;5005599;28;20177;-79
2023/06/20 01:06:24;;;;;;;1.60;1.60;;;22.80;76.00;;;;;;5021781;28;20030;-79
2023/06/20 01:08:57;;;;;;;1.48;1.48;;;22.80;75.10;;;;;;5008444;28;20586;-79
2023/06/20 01:11:54;;;;;;;1.20;1.20;;;22.90;75.30;;;;;;5005661;28;20452;-79
2023/06/20 01:14:57;;;;;;;1.50;1.50;;;22.90;75.40;;;;;;5001707;28;20089;-79
2023/06/20 01:17:28;;;;;;;1.45;1.45;;;22.80;75.30;;;;;;5004665;28;20200;-78
2023/06/20 01:20:20;;;;;;;2.00;1.90;;;22.80;76.00;;;;;;5019328;28;20038;-79
2023/06/20 01:22:58;;;;;;;1.70;1.70;;;22.90;75.30;;;;;;5002178;28;20083;-79
2023/06/20 01:25:35;;;;;;;1.60;1.60;;;22.80;75.10;;;;;;5001130;28;20046;-79
2023/06/20 01:28:09;;;;;;;1.73;1.67;;;22.90;75.30;;;;;;5003501;28;20049;-79
2023/06/20 01:31:12;;;;;;;1.80;1.80;;;22.80;75.30;;;;;;5004731;28;20122;-79
2023/06/20 01:33:52;;;;;;;1.67;1.67;;;22.90;75.20;;;;;;5002848;28;26124;-79
2023/06/20 01:36:19;;;;;;;1.40;1.33;;;22.80;75.10;;;;;;5017903;28;20515;-78
2023/06/20 01:38:44;;;;;;;1.77;1.67;;;22.80;75.20;;;;;;5005888;28;20104;-79
2023/06/20 01:41:10;;;;;;;1.88;1.77;;;22.80;75.20;;;;;;5006128;28;20053;-79
2023/06/20 01:43:36;;;;;;;1.52;1.52;;;22.80;75.30;;;;;;5005542;28;20468;-79
2023/06/20 01:46:01;;;;;;;1.48;1.48;;;22.80;75.20;;;;;;5004498;28;20050;-79
2023/06/20 01:48:27;;;;;;;1.40;1.40;;;22.80;75.20;;;;;;5003071;28;20634;-79
2023/06/20 01:50:53;;;;;;;2.05;1.95;;;22.80;75.40;;;;;;5008614;28;20133;-79
2023/06/20 01:53:19;;;;;;;2.10;2.00;;;22.80;75.30;;;;;;5003584;28;20049;-79
2023/06/20 01:55:44;;;;;;;1.63;1.63;;;22.80;75.30;;;;;;5003575;28;20483;-79
2023/06/20 01:58:10;;;;;;;1.90;1.83;;;22.80;75.20;;;;;;5017406;28;20419;-79
2023/06/20 02:00:36;;;;;;;1.50;1.50;;;22.80;75.20;;;;;;5003389;28;20041;-79
2023/06/20 02:03:01;;;;;;;1.65;1.55;;;22.80;75.20;;;;;;5004359;28;20048;-79
2023/06/20 02:05:29;;;;;;;1.58;1.58;;;22.80;75.20;;;;;;5002906;28;20045;-79
2023/06/20 02:07:55;;;;;;;1.23;1.23;;;22.90;75.20;;;;;;5002797;28;20034;-79
2023/06/20 02:10:21;;;;;;;1.45;1.45;;;22.80;75.20;;;;;;5001230;28;20046;-79
2023/06/20 02:12:47;;;;;;;1.30;1.30;;;22.90;75.30;;;;;;4999739;28;20038;-79
2023/06/20 02:15:13;;;;;;;1.50;1.50;;;22.80;75.30;;;;;;5003952;28;20462;-79
2023/06/20 02:17:38;;;;;;;1.67;1.67;;;22.80;75.40;;;;;;5017027;28;20057;-79
2023/06/20 02:20:05;;;;;;;1.40;1.40;;;22.80;75.30;;;;;;5002818;28;20061;-79
2023/06/20 02:22:30;;;;;;;1.88;1.77;;;22.80;75.30;;;;;;5003444;28;20503;-79
2023/06/20 02:24:57;;;;;;;1.48;1.48;;;22.80;75.30;;;;;;5004702;28;20034;-79
2023/06/20 02:27:22;;;;;;;1.30;1.30;;;22.80;75.30;;;;;;5004320;28;20182;-79
2023/06/20 02:29:50;;;;;;;1.30;1.20;;;22.80;75.40;;;;;;5007388;28;20042;-79
2023/06/20 02:32:16;;;;;;;1.40;1.40;;;22.80;75.30;;;;;;5003134;28;20394;-78
2023/06/20 02:34:44;;;;;;;1.40;1.40;;;22.80;75.20;;;;;;5002228;28;20180;-79
2023/06/20 02:37:09;;;;;;;1.30;1.30;;;22.80;75.20;;;;;;4999944;28;20125;-79
2023/06/20 02:39:35;;;;;;;1.60;1.60;;;22.80;75.20;;;;;;5005110;28;20211;-79
2023/06/20 02:42:00;;;;;;;1.20;1.20;;;22.80;75.30;;;;;;5007575;28;20052;-79
2023/06/20 02:44:26;;;;;;;1.50;1.50;;;22.80;75.30;;;;;;5001440;28;20050;-79
2023/06/20 02:47:23;;;;;;;1.40;1.40;;;22.80;75.20;;;;;;5004407;28;20594;-79
2023/06/20 02:49:55;;;;;;;1.35;1.35;;;22.80;75.20;;;;;;5002750;28;20065;-79
2023/06/20 02:52:27;;;;;;;1.70;1.70;;;22.80;75.10;;;;;;5018771;28;20523;-79
2023/06/20 02:55:21;;;;;;;1.67;1.58;;;22.80;75.20;;;;;;5003497;28;20042;-79
2023/06/20 02:57:52;;;;;;;1.75;1.65;;;22.80;75.20;;;;;;5001518;28;20116;-79
2023/06/20 03:00:18;;;;;;;1.38;1.38;;;22.80;75.10;;;;;;5005178;28;20049;-79
2023/06/20 03:03:09;;;;;;;1.30;1.30;;;22.80;75.10;;;;;;5004630;28;20034;-79
2023/06/20 03:05:36;;;;;;;1.90;1.80;;;22.80;75.10;;;;;;5003233;28;20042;-79
2023/06/20 03:08:02;;;;;;;1.48;1.48;;;22.80;75.90;;;;;;5004993;28;20073;-79
2023/06/20 03:10:28;;;;;;;1.60;1.60;;;22.80;75.10;;;;;;5003521;28;20041;-79
2023/06/20 03:12:53;;;;;;;1.42;1.42;;;22.80;75.20;;;;;;5004865;28;20053;-79
2023/06/20 03:15:19;;;;;;;1.40;1.40;;;22.80;75.10;;;;;;5005280;28;20042;-79
2023/06/20 03:17:45;;;;;;;1.33;1.33;;;22.80;75.20;;;;;;5018272;28;20050;-79
2023/06/20 03:20:11;;;;;;;1.50;1.50;;;22.80;75.20;;;;;;5005067;28;20079;-79
2023/06/20 03:22:36;;;;;;;1.20;1.20;;;22.80;75.20;;;;;;5000051;28;20132;-79
2023/06/20 03:25:02;;;;;;;1.13;1.13;;;22.80;75.20;;;;;;4999241;28;20050;-79
2023/06/20 03:27:27;;;;;;;1.35;1.35;;;22.80;75.20;;;;;;5019398;28;20057;-79
2023/06/20 03:29:53;;;;;;;1.70;1.60;;;22.80;75.20;;;;;;5005935;28;20909;-78
2023/06/20 03:32:19;;;;;;;1.30;1.30;;;22.80;75.20;;;;;;5000920;28;20421;-78
2023/06/20 03:34:45;;;;;;;1.30;1.30;;;22.80;75.20;;;;;;5003041;28;20033;-79
2023/06/20 03:37:10;;;;;;;1.40;1.40;;;22.80;75.10;;;;;;5002216;28;20508;-79
2023/06/20 03:39:36;;;;;;;1.25;1.25;;;22.80;75.20;;;;;;5003453;28;20061;-79
2023/06/20 03:42:01;;;;;;;1.30;1.30;;;22.80;75.20;;;;;;5006151;28;20495;-79
2023/06/20 03:44:27;;;;;;;1.40;1.35;;;22.80;75.30;;;;;;5000557;28;20081;-78
2023/06/20 03:46:52;;;;;;;1.55;1.55;;;22.80;75.30;;;;;;5000511;28;20131;-79
2023/06/20 03:49:18;;;;;;;1.42;1.42;;;22.80;75.30;;;;;;5001639;28;20049;-78
2023/06/20 03:51:43;;;;;;;1.30;1.30;;;22.80;75.20;;;;;;5001323;28;20042;-79
2023/06/20 03:54:09;;;;;;;1.33;1.33;;;22.70;75.20;;;;;;5004832;28;20389;-79
2023/06/20 03:56:35;;;;;;;1.40;1.40;;;22.80;75.30;;;;;;5003210;28;20045;-79
2023/06/20 03:59:00;;;;;;;1.58;1.58;;;22.80;75.30;;;;;;5003486;28;20574;-79
2023/06/20 04:01:26;;;;;;;1.55;1.55;;;22.80;75.20;;;;;;5002589;28;20034;-78
2023/06/20 04:03:53;;;;;;;1.50;1.50;;;22.80;75.20;;;;;;4998259;28;20043;-79
2023/06/20 04:06:19;;;;;;;1.23;1.23;;;22.80;75.90;;;;;;5003296;28;20422;-79
2023/06/20 04:08:45;;;;;;;1.52;1.52;;;22.80;75.10;;;;;;5002172;28;20496;-79
2023/06/20 04:11:10;;;;;;;1.48;1.45;;;22.80;75.10;;;;;;4999897;28;20048;-78
2023/06/20 04:13:36;;;;;;;1.80;1.80;;;22.80;75.10;;;;;;5004699;28;20049;-79
2023/06/20 04:16:02;;;;;;;1.65;1.55;;;22.80;75.10;;;;;;5003097;28;20053;-79
2023/06/20 04:18:27;;;;;;;1.58;1.58;;;22.80;75.10;;;;;;5001823;28;20455;-79
2023/06/20 04:20:53;;;;;;;1.40;1.40;;;22.70;75.00;;;;;;5005096;28;20058;-78
2023/06/20 04:23:18;;;;;;;1.67;1.58;;;22.70;75.00;;;;;;4998400;28;20049;-79
2023/06/20 04:25:44;;;;;;;1.52;1.52;;;22.80;75.10;;;;;;5004415;28;20066;-79
2023/06/20 04:28:09;;;;;;;1.40;1.40;;;22.70;75.10;;;;;;5001132;28;20034;-79
2023/06/20 04:30:35;;;;;;;1.23;1.23;;;22.80;75.10;;;;;;5003559;28;20042;-79
2023/06/20 04:33:00;;;;;;;1.38;1.38;;;22.70;75.00;;;;;;5006989;28;20045;-79
2023/06/20 04:35:26;;;;;;;1.40;1.40;;;22.80;75.10;;;;;;5003513;28;20061;-78
2023/06/20 04:37:52;;;;;;;1.50;1.50;;;22.70;75.80;;;;;;5019652;28;20044;-79
2023/06/20 04:40:17;;;;;;;1.67;1.60;;;22.70;75.00;;;;;;5002537;28;20102;-79
2023/06/20 04:42:45;;;;;;;2.20;1.42;;;22.70;75.00;;;;;;5002598;28;20108;-79
2023/06/20 04:45:11;;;;;;;1.63;1.55;;;22.80;75.00;;;;;;5006179;28;20038;-79
2023/06/20 04:47:37;;;;;;;1.40;1.40;;;22.80;75.80;;;;;;5001848;28;20045;-78
2023/06/20 04:50:03;;;;;;;1.35;1.35;;;22.70;75.00;;;;;;5002260;28;20546;-79
2023/06/20 04:52:31;;;;;;;1.23;1.23;;;22.80;75.10;;;;;;5001874;28;20129;-79
2023/06/20 04:55:02;;;;;;;1.48;1.48;;;22.80;75.10;;;;;;5001708;28;20048;-79
2023/06/20 04:57:30;;;;;;;1.27;1.27;;;22.70;75.10;;;;;;5009450;28;20038;-78
2023/06/20 04:59:56;;;;;;;1.40;1.40;;;22.70;75.00;;;;;;5009109;28;20463;-79
2023/06/20 05:02:23;;;;;;;1.40;1.40;;;22.80;75.90;;;;;;5008182;28;20050;-79
2023/06/20 05:04:48;;;;;;;1.33;1.33;;;22.80;75.00;;;;;;5006224;28;20030;-79
2023/06/20 05:07:14;;;;;;;1.40;1.40;;;22.70;74.90;;;;;;5003301;28;20116;-79
2023/06/20 05:09:39;;;;;;;1.25;1.25;;;22.80;75.00;;;;;;5003824;28;20100;-79
2023/06/20 05:12:05;;;;;;;1.52;1.45;;;22.80;74.90;;;;;;5008007;28;20052;-78
2023/06/20 05:14:31;;;;;;;1.50;1.50;;;22.70;74.90;;;;;;5007285;28;20120;-79
2023/06/20 05:16:56;;;;;;;1.70;1.60;;;22.70;75.00;;;;;;5002868;28;20049;-79
2023/06/20 05:19:22;;;;;;;1.60;1.60;;;22.70;75.00;;;;;;5003353;28;20061;-79
2023/06/20 05:21:47;;;;;;;1.73;1.65;;;22.70;75.00;;;;;;5004116;28;20038;-79
2023/06/20 05:24:14;;;;;;;1.40;1.40;;;22.70;74.90;;;;;;5008573;28;20038;-79
2023/06/20 05:26:39;;;;;;;1.50;1.50;;;22.80;74.90;;;;;;5021584;28;20484;-79
2023/06/20 05:29:05;;;;;;;1.40;1.40;;;22.80;74.90;;;;;;5004287;28;20120;-79
2023/06/20 05:31:31;;;;;;;1.73;1.70;;;22.80;74.90;;;;;;5006178;28;20046;-78
2023/06/20 05:33:56;;;;;;;1.60;1.50;;;22.70;74.80;;;;;;5004479;28;20046;-78
2023/06/20 05:36:22;;;;;;;1.27;1.27;;;22.70;74.80;;;;;;5006399;28;20092;-78
2023/06/20 05:38:50;;;;;;;1.50;1.50;;;22.70;74.80;;;;;;5006686;28;20124;-78
2023/06/20 05:41:16;;;;;;;1.52;1.52;;;22.70;74.90;;;;;;5005869;28;20646;-79
2023/06/20 05:43:42;;;;;;;1.55;1.55;;;22.70;74.90;;;;;;5006301;28;20118;-79
2023/06/20 05:46:08;;;;;;;1.55;1.55;;;22.80;74.90;;;;;;5005093;28;20042;-79
2023/06/20 05:48:34;;;;;;;1.50;1.50;;;22.70;74.80;;;;;;5003449;28;20466;-79
2023/06/20 05:51:00;;;;;;;1.67;1.58;;;22.70;74.80;;;;;;5007130;28;20050;-79
2023/06/20 05:53:28;;;;;;;1.48;1.48;;;22.70;74.80;;;;;;5004982;28;20045;-79
2023/06/20 05:55:53;;;;;;;1.65;1.55;;;22.70;74.80;;;;;;5001445;28;20138;-78
2023/06/20 05:58:19;;;;;;;1.45;1.45;;;22.70;74.80;;;;;;5004642;28;20491;-79
2023/06/20 06:00:45;;;;;;;1.60;1.58;;;22.80;74.90;;;;;;5003703;28;20039;-79
2023/06/20 06:03:12;;;;;;;1.92;1.83;;;22.80;74.90;;;;;;5006629;28;20038;-78
2023/06/20 06:05:39;;;;;;;1.95;1.88;;;22.80;74.50;;;;;;5002621;28;20117;-79
2023/06/20 06:08:05;;;;;;;1.90;1.80;;;22.80;75.00;;;;;;5002453;28;20092;-79
2023/06/20 06:10:31;;;;;;;2.15;2.05;;;22.70;74.90;;;;;;5004501;28;20030;-79
2023/06/20 06:12:56;;;;;;;1.50;1.50;;;22.70;74.90;;;;;;5005887;28;20116;-79
2023/06/20 06:15:22;;;;;;;1.90;1.80;;;22.70;74.90;;;;;;5006872;28;20511;-78
2023/06/20 06:17:48;;;;;;;1.17;1.17;;;22.70;74.90;;;;;;5004068;28;20439;-78
2023/06/20 06:20:17;;;;;;;1.70;1.60;;;22.70;74.90;;;;;;5005735;28;20122;-78
2023/06/20 06:22:43;;;;;;;1.52;1.52;;;22.70;74.80;;;;;;5005198;28;20120;-79
2023/06/20 06:25:08;;;;;;;1.60;1.50;;;22.70;75.60;;;;;;5009002;28;20168;-79
2023/06/20 06:27:34;;;;;;;1.83;1.73;;;22.80;74.90;;;;;;5005511;28;20030;-78
2023/06/20 06:30:00;;;;;;;2.13;2.03;;;22.80;74.80;;;;;;5006955;28;20087;-79
2023/06/20 06:32:27;;;;;;;1.50;1.50;;;22.70;74.80;;;;;;5003329;28;20046;-79
2023/06/20 06:34:53;;;;;;;1.88;1.77;;;22.80;74.90;;;;;;5004207;28;20046;-79
2023/06/20 06:37:19;;;;;;;1.90;1.80;;;22.80;74.90;;;;;;5004113;28;20419;-79
2023/06/20 06:39:45;;;;;;;1.70;1.70;;;22.70;74.90;;;;;;5022738;28;20046;-79
2023/06/20 06:42:10;;;;;;;2.25;2.15;;;22.70;74.90;;;;;;5019894;28;20048;-79
2023/06/20 06:44:36;;;;;;;2.40;2.30;;;22.80;75.00;;;;;;5001349;28;20076;-78
2023/06/20 06:47:02;;;;;;;1.75;1.75;;;22.70;74.90;;;;;;5002214;28;20045;-78
2023/06/20 06:49:27;;;;;;;1.90;1.80;;;22.80;74.90;;;;;;5001571;28;20455;-79
2023/06/20 06:51:53;;;;;;;2.20;2.10;;;22.80;74.90;;;;;;4996820;28;20041;-79
2023/06/20 06:54:19;;;;;;;2.40;2.30;;;22.80;74.80;;;;;;5020543;28;20073;-79
2023/06/20 06:56:45;;;;;;;1.67;1.67;;;22.80;75.70;;;;;;5007729;28;20054;-78
2023/06/20 06:59:11;;;;;;;1.60;1.60;;;22.80;74.90;;;;;;5004932;28;20183;-78
2023/06/20 07:01:36;;;;;;;1.75;1.65;;;22.70;75.00;;;;;;5002094;28;20038;-78
2023/06/20 07:04:03;;;;;;;1.80;1.80;;;22.80;75.00;;;;;;5018857;28;20058;-78
2023/06/20 07:06:29;;;;;;;1.95;1.85;;;22.80;75.00;;;;;;5003028;28;20429;-79
2023/06/20 07:08:55;;;;;;;1.90;1.80;;;22.80;74.90;;;;;;5002004;28;20435;-79
2023/06/20 07:11:21;;;;;;;2.00;1.90;;;22.80;74.80;;;;;;5001791;28;20046;-79
2023/06/20 07:13:46;;;;;;;1.90;1.80;;;22.80;74.70;;;;;;5001667;28;20070;-79
2023/06/20 07:16:12;;;;;;;1.67;1.60;;;22.80;74.70;;;;;;5002437;28;20187;-79
2023/06/20 07:18:37;;;;;;;1.75;1.70;;;22.80;74.70;;;;;;5001232;28;20456;-79
2023/06/20 07:21:03;;;;;;;1.88;1.80;;;22.80;74.80;;;;;;5004842;28;20057;-79
2023/06/20 07:23:29;;;;;;;1.88;1.77;;;22.80;74.80;;;;;;4999887;28;20038;-79
2023/06/20 07:25:54;;;;;;;1.70;1.70;;;22.80;74.80;;;;;;5001308;28;20052;-78
2023/06/20 07:28:20;;;;;;;1.80;1.70;;;22.80;74.80;;;;;;5002377;28;20042;-79
2023/06/20 07:30:45;;;;;;;1.65;1.65;;;22.80;74.80;;;;;;5002879;28;20510;-78
2023/06/20 07:33:11;;;;;;;1.75;1.70;;;22.80;74.90;;;;;;5008254;28;20407;-79
2023/06/20 07:35:37;;;;;;;1.50;1.50;;;22.80;75.00;;;;;;5001457;28;20161;-79
2023/06/20 07:38:02;;;;;;;2.00;1.90;;;22.80;74.90;;;;;;5002036;28;20030;-79
2023/06/20 07:40:28;;;;;;;2.00;1.90;;;22.80;74.90;;;;;;5001599;28;20565;-79
2023/06/20 07:42:53;;;;;;;1.83;1.73;;;22.80;74.80;;;;;;5002578;28;20038;-78
2023/06/20 07:45:19;;;;;;;1.73;1.70;;;22.80;74.70;;;;;;5006838;28;20087;-78
2023/06/20 07:47:44;;;;;;;1.98;1.88;;;22.80;74.70;;;;;;5005498;28;20128;-79
2023/06/20 07:50:10;;;;;;;2.00;1.90;;;22.80;74.80;;;;;;5001131;28;20060;-79
2023/06/20 07:52:36;;;;;;;2.10;2.00;;;22.80;74.70;;;;;;5000673;28;20085;-78
2023/06/20 07:55:03;;;;;;;2.00;1.90;;;22.80;74.70;;;;;;5003890;28;20500;-79
2023/06/20 07:57:28;;;;;;;1.80;1.80;;;22.80;74.70;;;;;;5003035;28;20046;-79
2023/06/20 07:59:54;;;;;;;2.30;2.20;;;22.80;74.70;;;;;;5003716;28;20034;-79
2023/06/20 08:02:20;;;;;;;2.20;2.10;;;22.80;75.50;;;;;;5004653;28;20133;-79
2023/06/20 08:04:46;;;;;;;1.80;1.80;;;22.80;74.60;;;;;;5000250;28;20104;-78
2023/06/20 08:07:11;;;;;;;1.70;1.60;;;22.80;74.60;;;;;;5004211;28;20507;-79
2023/06/20 08:09:37;;;;;;;1.90;1.80;;;22.80;74.70;;;;;;5004554;28;20105;-78
2023/06/20 08:12:02;;;;;;;2.00;1.90;;;22.80;74.80;;;;;;5005763;28;20100;-79
2023/06/20 08:14:28;;;;;;;1.90;1.80;;;22.80;74.70;;;;;;5005777;28;20046;-79
2023/06/20 08:16:53;;;;;;;2.10;2.00;;;22.80;74.70;;;;;;5003995;28;20030;-79
2023/06/20 08:19:19;;;;;;;2.00;1.90;;;22.80;74.60;;;;;;5004551;28;20046;-79
2023/06/20 08:21:45;;;;;;;2.10;2.00;;;22.90;74.70;;;;;;5001060;28;20579;-79
2023/06/20 08:24:10;;;;;;;2.30;2.20;;;22.90;74.80;;;;;;5006192;28;20033;-79
2023/06/20 08:26:36;;;;;;;1.90;1.80;;;22.80;74.70;;;;;;5001913;28;20041;-78
2023/06/20 08:29:02;;;;;;;1.90;1.80;;;22.90;74.70;;;;;;5003091;28;20070;-79
2023/06/20 08:31:37;;;;;;;2.20;2.10;;;22.90;74.70;;;;;;5005143;28;20061;-79
2023/06/20 08:34:05;;;;;;;1.75;1.75;;;22.90;74.70;;;;;;5006541;28;20500;-79
2023/06/20 08:36:32;;;;;;;2.00;1.90;;;22.90;74.70;;;;;;5006801;28;20137;-79
2023/06/20 08:38:59;;;;;;;1.90;1.80;;;22.90;74.60;;;;;;5006248;28;20046;-79
2023/06/20 08:41:28;;;;;;;1.92;1.83;;;22.90;74.60;;;;;;5007991;28;20042;-79
2023/06/20 08:43:54;;;;;;;1.70;1.60;;;22.90;74.60;;;;;;5005591;28;20041;-79
2023/06/20 08:46:19;;;;;;;1.65;1.55;;;22.90;74.60;;;;;;5005504;28;20042;-79
2023/06/20 08:48:46;;;;;;;1.83;1.73;;;22.90;74.50;;;;;;5007878;28;20038;-79
2023/06/20 08:51:14;;;;;;;1.83;1.73;;;22.90;74.40;;;;;;5010220;28;20527;-79
2023/06/20 08:53:40;;;;;;;2.22;2.13;;;22.90;74.30;;;;;;5008597;28;20050;-78
2023/06/20 08:56:06;;;;;;;2.20;2.10;;;22.90;74.20;;;;;;5006738;28;20052;-79
2023/06/20 08:58:32;;;;;;;2.60;2.50;;;23.00;74.20;;;;;;5008079;28;20022;-79
2023/06/20 09:00:58;;;;;;;1.95;1.85;;;23.00;74.10;;;;;;5007058;28;20124;-79
2023/06/20 09:03:23;;;;;;;2.30;2.20;;;23.00;74.00;;;;;;5007289;28;20438;-78
2023/06/20 09:05:49;;;;;;;2.13;2.00;;;23.00;74.00;;;;;;5006709;28;20388;-79
2023/06/20 09:08:15;;;;;;;2.20;2.10;;;23.00;73.90;;;;;;5007242;28;20038;-79
2023/06/20 09:10:40;;;;;;;1.80;1.70;;;23.00;74.00;;;;;;5003440;28;20112;-78
2023/06/20 09:13:06;;;;;;;2.05;1.95;;;23.00;73.90;;;;;;5006404;28;20054;-78
2023/06/20 09:15:33;;;;;;;2.17;2.08;;;23.00;73.90;;;;;;5005884;28;20116;-78
2023/06/20 09:18:00;;;;;;;2.00;1.90;;;23.10;74.00;;;;;;5004567;28;20060;-78
2023/06/20 09:20:27;;;;;;;1.70;1.70;;;23.10;74.80;;;;;;5008144;28;20649;-78
2023/06/20 09:22:52;;;;;;;1.70;1.70;;;23.10;73.90;;;;;;5022732;28;20048;-79
2023/06/20 09:25:22;;;;;;;1.98;1.88;;;23.10;73.90;;;;;;5006451;28;20038;-79
2023/06/20 09:27:48;;;;;;;1.75;1.65;;;23.10;73.90;;;;;;5007076;28;20045;-78
2023/06/20 09:30:13;;;;;;;1.85;1.83;;;23.10;73.90;;;;;;5009356;28;20041;-79
2023/06/20 09:32:40;;;;;;;2.10;2.00;;;23.10;73.90;;;;;;5018509;28;20042;-77
2023/06/20 09:35:14;;;;;;;1.80;1.80;;;23.10;73.80;;;;;;5007022;28;20053;-79
2023/06/20 09:37:44;;;;;;;2.10;2.00;;;23.10;73.80;;;;;;5006371;28;20042;-78
2023/06/20 09:40:11;;;;;;;2.10;1.90;;;23.10;73.80;;;;;;5003995;28;20053;-79
2023/06/20 09:42:37;;;;;;;1.73;1.63;;;23.10;73.80;;;;;;5004277;28;20648;-79
2023/06/20 09:45:03;;;;;;;1.73;1.63;;;23.10;73.90;;;;;;5006632;28;20045;-78
2023/06/20 09:47:29;;;;;;;1.52;1.52;;;23.10;73.80;;;;;;5004127;28;20649;-79
2023/06/20 09:49:57;;;;;;;1.88;1.77;;;23.10;73.80;;;;;;5006068;28;20072;-79
2023/06/20 09:52:23;;;;;;;2.10;2.00;;;23.10;73.80;;;;;;5007268;28;20042;-79
2023/06/20 09:54:56;;;;;;;1.80;1.70;;;23.10;73.70;;;;;;5004410;28;20038;-78
2023/06/20 09:57:30;;;;;;;1.70;1.70;;;23.10;73.70;;;;;;5005008;28;20037;-79
2023/06/20 09:59:56;;;;;;;1.70;1.60;;;23.10;73.80;;;;;;5020366;28;20070;-79
2023/06/20 10:02:24;;;;;;;2.10;2.00;;;23.10;73.80;;;;;;5006391;28;20042;-79
2023/06/20 10:04:49;;;;;;;2.10;2.00;;;23.10;73.70;;;;;;5004526;28;20411;-78
2023/06/20 10:07:15;;;;;;;2.10;2.00;;;23.10;74.40;;;;;;4993696;28;20512;-79
2023/06/20 10:09:41;;;;;;;2.08;1.98;;;23.10;73.70;;;;;;5002562;28;20057;-79
2023/06/20 10:12:07;;;;;;;2.15;2.05;;;23.20;73.70;;;;;;5007598;28;20088;-79
2023/06/20 10:14:33;;;;;;;2.00;1.90;;;23.20;73.70;;;;;;5005510;28;20042;-79
2023/06/20 10:17:05;;;;;;;1.98;1.88;;;23.20;73.60;;;;;;5019736;28;20749;-79
2023/06/20 10:19:45;;;;;;;2.08;1.98;;;23.20;73.60;;;;;;5006532;28;20048;-79
2023/06/20 10:22:10;;;;;;;1.88;1.77;;;23.20;73.60;;;;;;5005641;28;20503;-79
2023/06/20 10:24:38;;;;;;;1.60;1.60;;;23.20;73.50;;;;;;5003115;28;20097;-79
2023/06/20 10:27:05;;;;;;;1.50;1.50;;;23.20;73.50;;;;;;5002528;28;20038;-79
2023/06/20 10:29:38;;;;;;;1.38;1.38;;;23.20;73.40;;;;;;5002536;28;20052;-79
2023/06/20 10:32:04;;;;;;;1.58;1.58;;;23.20;73.40;;;;;;5018992;28;20141;-79
2023/06/20 10:34:36;;;;;;;1.70;1.70;;;23.20;73.50;;;;;;5005118;28;20112;-79
2023/06/20 10:37:28;;;;;;;1.90;1.80;;;23.20;73.50;;;;;;5004831;28;20092;-79
2023/06/20 10:39:57;;;;;;;1.60;1.50;;;23.20;73.50;;;;;;5004357;28;20571;-79
2023/06/20 10:42:36;;;;;;;1.55;1.55;;;23.20;73.50;;;;;;5006974;28;20038;-79
2023/06/20 10:45:25;;;;;;;1.80;1.70;;;23.20;73.50;;;;;;5005210;28;20046;-79
2023/06/20 10:47:51;;;;;;;1.52;1.52;;;23.20;73.40;;;;;;5005171;28;20042;-79
2023/06/20 10:50:17;;;;;;;1.85;1.75;;;23.20;73.40;;;;;;5001520;28;20060;-79
2023/06/20 10:52:43;;;;;;;1.80;1.70;;;23.20;73.40;;;;;;5004519;28;20602;-79
2023/06/20 10:55:09;;;;;;;1.50;1.50;;;23.20;73.40;;;;;;5003954;28;20052;-79
2023/06/20 10:57:35;;;;;;;1.92;1.83;;;23.30;74.10;;;;;;5005039;28;20038;-79
2023/06/20 11:00:10;;;;;;;1.48;1.48;;;23.30;73.20;;;;;;5005407;28;20060;-79
2023/06/20 11:02:36;;;;;;;1.63;1.55;;;23.30;73.20;;;;;;5003963;28;20066;-79
2023/06/20 11:05:04;;;;;;;1.88;1.80;;;23.30;73.10;;;;;;5003639;28;20436;-78
2023/06/20 11:07:29;;;;;;;1.63;1.63;;;23.30;72.90;;;;;;5005207;28;20128;-79
2023/06/20 11:09:55;;;;;;;2.00;1.90;;;23.40;73.00;;;;;;5004283;28;20118;-79
2023/06/20 11:12:21;;;;;;;1.45;1.45;;;23.40;72.90;;;;;;5004911;28;20153;-79
2023/06/20 11:14:46;;;;;;;2.00;1.90;;;23.40;72.70;;;;;;5004826;28;20037;-78
2023/06/20 11:17:12;;;;;;;1.65;1.55;;;23.40;72.70;;;;;;5003845;28;20046;-79
2023/06/20 11:19:38;;;;;;;1.67;1.58;;;23.40;72.70;;;;;;5005176;28;20061;-79
2023/06/20 11:22:04;;;;;;;1.63;1.60;;;23.40;72.90;;;;;;4999700;28;20042;-79
2023/06/20 11:24:35;;;;;;;1.55;1.55;;;23.40;72.80;;;;;;5005308;28;20053;-79
2023/06/20 11:27:16;;;;;;;2.05;1.95;;;23.40;72.90;;;;;;5018026;28;20041;-79
2023/06/20 11:29:42;;;;;;;1.42;1.42;;;23.40;72.80;;;;;;5006104;28;20488;-79
2023/06/20 11:32:10;;;;;;;1.35;1.35;;;23.40;72.70;;;;;;5002632;28;20077;-79
2023/06/20 11:34:54;;;;;;;1.95;1.85;;;23.40;72.80;;;;;;5005346;28;20545;-79
2023/06/20 11:37:23;;;;;;;1.60;1.55;;;23.40;72.80;;;;;;5001543;28;20042;-79
2023/06/20 11:39:48;;;;;;;1.77;1.67;;;23.40;72.80;;;;;;5004560;28;20042;-78
2023/06/20 11:42:17;;;;;;;1.58;1.48;;;23.40;72.80;;;;;;5005887;28;20573;-78
2023/06/20 11:44:42;;;;;;;1.42;1.42;;;23.40;72.80;;;;;;5006028;28;20053;-79
2023/06/20 11:47:09;;;;;;;1.40;1.40;;;23.40;72.70;;;;;;5005269;28;20428;-79
2023/06/20 11:49:35;;;;;;;1.52;1.52;;;23.40;72.60;;;;;;5001159;28;20070;-79
2023/06/20 11:52:01;;;;;;;1.50;1.50;;;23.40;72.70;;;;;;5004261;28;20064;-79
2023/06/20 11:54:27;;;;;;;1.90;1.80;;;23.40;72.70;;;;;;5018925;28;20042;-79
2023/06/20 11:56:53;;;;;;;1.67;1.58;;;23.50;72.80;;;;;;5004894;28;20388;-79
2023/06/20 11:59:23;;;;;;;1.65;1.65;;;23.40;72.90;;;;;;5002565;28;20058;-79
2023/06/20 12:01:48;;;;;;;1.98;1.88;;;23.40;72.80;;;;;;5000231;28;20569;-78
2023/06/20 12:04:18;;;;;;;2.08;1.98;;;23.40;72.70;;;;;;5005357;28;20049;-79
2023/06/20 12:06:44;;;;;;;1.38;1.38;;;23.40;72.70;;;;;;5006548;28;20034;-79
2023/06/20 12:09:15;;;;;;;1.35;1.35;;;23.50;72.70;;;;;;5009303;28;20380;-79
2023/06/20 12:11:54;;;;;;;1.63;1.63;;;23.50;72.60;;;;;;5009686;28;20050;-79
2023/06/20 12:14:22;;;;;;;1.40;1.40;;;23.50;72.80;;;;;;4989190;28;20527;-79
2023/06/20 12:16:48;;;;;;;1.92;1.90;;;23.50;72.70;;;;;;5007775;28;20542;-79
2023/06/20 12:19:14;;;;;;;1.50;1.50;;;23.50;72.70;;;;;;5007228;28;20053;-79
2023/06/20 12:21:40;;;;;;;1.63;1.52;;;23.50;72.70;;;;;;5007260;28;20053;-79
2023/06/20 12:24:06;;;;;;;1.52;1.52;;;23.50;72.70;;;;;;5011254;28;20042;-79
2023/06/20 12:26:31;;;;;;;1.80;1.70;;;23.50;72.70;;;;;;5007302;28;20069;-79
2023/06/20 12:28:57;;;;;;;1.65;1.55;;;23.50;72.70;;;;;;5006250;28;20124;-79
2023/06/20 12:31:24;;;;;;;1.50;1.50;;;23.50;72.80;;;;;;5006803;28;20049;-79
2023/06/20 12:33:49;;;;;;;1.85;1.75;;;23.50;72.80;;;;;;5006369;28;20577;-79
2023/06/20 12:36:16;;;;;;;1.42;1.42;;;23.50;72.80;;;;;;5000874;28;20125;-79
2023/06/20 12:38:41;;;;;;;1.70;1.60;;;23.50;73.50;;;;;;5009425;28;20061;-79
2023/06/20 12:41:07;;;;;;;1.70;1.70;;;23.50;72.60;;;;;;5005949;28;20508;-79
2023/06/20 12:43:33;;;;;;;1.70;1.60;;;23.50;73.40;;;;;;5006852;28;20053;-79
2023/06/20 12:45:58;;;;;;;1.63;1.63;;;23.50;72.60;;;;;;5003889;28;20504;-79
2023/06/20 12:48:27;;;;;;;1.33;1.33;;;23.50;72.70;;;;;;5006993;28;20066;-79